sensor_id;sensor_type;location;lat;lon;timestamp;temperature;humidity
8436;DHT22;4255;48.730;9.156;2022-12-05T00:00:19;3.60;99.90
8436;DHT22;4255;48.730;9.156;2022-12-05T00:02:45;3.60;99.90
8436;DHT22;4255;48.730;9.156;2022-12-05T00:05:11;3.70;99.90
8436;DHT22;4255;48.730;9.156;2022-12-05T00:07:37;3.90;99.90
8436;DHT22;4255;48.730;9.156;2022-12-05T00:10:04;3.80;99.90
8436;DHT22;4255;48.730;9.156;2022-12-05T00:12:30;3.70;99.90
8436;DHT22;4255;48.730;9.156;2022-12-05T00:14:56;3.80;99.90
8436;DHT22;4255;48.730;9.156;2022-12-05T00:17:21;3.60;99.90
8436;DHT22;4255;48.730;9.156;2022-12-05T00:19:47;3.70;99.90
8436;DHT22;4255;48.730;9.156;2022-12-05T00:22:12;3.80;99.90
8436;DHT22;4255;48.730;9.156;2022-12-05T00:24:38;3.90;99.90
8436;DHT22;4255;48.730;9.156;2022-12-05T00:27:04;3.90;99.90
8436;DHT22;4255;48.730;9.156;2022-12-05T00:29:30;4.10;99.90
8436;DHT22;4255;48.730;9.156;2022-12-05T00:31:55;4.10;99.90
8436;DHT22;4255;48.730;9.156;2022-12-05T00:34:21;4.00;99.90
8436;DHT22;4255;48.730;9.156;2022-12-05T00:36:47;4.10;99.90
8436;DHT22;4255;48.730;9.156;2022-12-05T00:39:13;4.10;99.90
8436;DHT22;4255;48.730;9.156;2022-12-05T00:41:40;4.00;99.90
8436;DHT22;4255;48.730;9.156;2022-12-05T00:44:06;3.90;99.90
8436;DHT22;4255;48.730;9.156;2022-12-05T00:46:33;4.00;99.90
8436;DHT22;4255;48.730;9.156;2022-12-05T00:49:00;4.00;99.90
8436;DHT22;4255;48.730;9.156;2022-12-05T00:51:28;3.80;99.90
8436;DHT22;4255;48.730;9.156;2022-12-05T00:53:57;3.90;99.90
8436;DHT22;4255;48.730;9.156;2022-12-05T00:56:25;4.00;99.90
8436;DHT22;4255;48.730;9.156;2022-12-05T00:58:52;4.10;99.90
8436;DHT22;4255;48.730;9.156;2022-12-05T01:01:24;4.10;99.90
8436;DHT22;4255;48.730;9.156;2022-12-05T01:03:52;3.90;99.90
8436;DHT22;4255;48.730;9.156;2022-12-05T01:06:18;3.80;99.90
8436;DHT22;4255;48.730;9.156;2022-12-05T01:08:44;3.70;99.90
8436;DHT22;4255;48.730;9.156;2022-12-05T01:11:11;3.80;99.90
8436;DHT22;4255;48.730;9.156;2022-12-05T01:13:38;3.70;99.90
8436;DHT22;4255;48.730;9.156;2022-12-05T01:16:04;3.80;99.90
8436;DHT22;4255;48.730;9.156;2022-12-05T01:18:30;3.90;99.90
8436;DHT22;4255;48.730;9.156;2022-12-05T01:20:56;3.90;99.90
8436;DHT22;4255;48.730;9.156;2022-12-05T01:23:22;3.80;99.90
8436;DHT22;4255;48.730;9.156;2022-12-05T01:25:50;3.90;99.90
8436;DHT22;4255;48.730;9.156;2022-12-05T01:28:16;3.80;99.90
8436;DHT22;4255;48.730;9.156;2022-12-05T01:30:45;3.70;99.90
8436;DHT22;4255;48.730;9.156;2022-12-05T01:33:11;3.80;99.90
8436;DHT22;4255;48.730;9.156;2022-12-05T01:35:40;3.80;99.90
8436;DHT22;4255;48.730;9.156;2022-12-05T01:38:06;4.00;99.90
8436;DHT22;4255;48.730;9.156;2022-12-05T01:40:33;4.10;99.90
8436;DHT22;4255;48.730;9.156;2022-12-05T01:43:00;4.20;99.90
8436;DHT22;4255;48.730;9.156;2022-12-05T01:45:36;4.10;99.90
8436;DHT22;4255;48.730;9.156;2022-12-05T01:48:06;4.10;99.90
8436;DHT22;4255;48.730;9.156;2022-12-05T01:50:35;4.00;99.90
8436;DHT22;4255;48.730;9.156;2022-12-05T01:53:02;3.80;99.90
8436;DHT22;4255;48.730;9.156;2022-12-05T01:55:28;3.80;99.90
8436;DHT22;4255;48.730;9.156;2022-12-05T01:57:56;3.90;99.90
8436;DHT22;4255;48.730;9.156;2022-12-05T02:00:22;3.80;99.90
8436;DHT22;4255;48.730;9.156;2022-12-05T02:02:53;3.70;99.90
8436;DHT22;4255;48.730;9.156;2022-12-05T02:05:29;3.80;99.90
8436;DHT22;4255;48.730;9.156;2022-12-05T02:07:57;3.80;99.90
8436;DHT22;4255;48.730;9.156;2022-12-05T02:10:24;4.00;99.90
8436;DHT22;4255;48.730;9.156;2022-12-05T02:12:50;4.10;99.90
8436;DHT22;4255;48.730;9.156;2022-12-05T02:15:22;4.20;99.90
8436;DHT22;4255;48.730;9.156;2022-12-05T02:20:48;4.00;99.90
8436;DHT22;4255;48.730;9.156;2022-12-05T02:23:53;4.00;99.90
8436;DHT22;4255;48.730;9.156;2022-12-05T02:32:03;3.80;99.90
8436;DHT22;4255;48.730;9.156;2022-12-05T02:34:50;3.90;99.90
8436;DHT22;4255;48.730;9.156;2022-12-05T02:40:25;3.90;99.90
8436;DHT22;4255;48.730;9.156;2022-12-05T02:43:04;3.90;99.90
8436;DHT22;4255;48.730;9.156;2022-12-05T02:45:33;4.00;99.90
8436;DHT22;4255;48.730;9.156;2022-12-05T02:48:00;4.10;99.90
8436;DHT22;4255;48.730;9.156;2022-12-05T02:50:35;4.00;99.90
8436;DHT22;4255;48.730;9.156;2022-12-05T02:53:09;3.90;99.90
8436;DHT22;4255;48.730;9.156;2022-12-05T02:55:37;3.90;99.90
8436;DHT22;4255;48.730;9.156;2022-12-05T02:58:08;3.90;99.90
8436;DHT22;4255;48.730;9.156;2022-12-05T03:00:38;4.10;99.90
8436;DHT22;4255;48.730;9.156;2022-12-05T03:03:13;4.20;99.90
8436;DHT22;4255;48.730;9.156;2022-12-05T03:06:05;4.40;99.90
8436;DHT22;4255;48.730;9.156;2022-12-05T03:08:47;4.40;99.90
8436;DHT22;4255;48.730;9.156;2022-12-05T03:11:15;4.40;99.90
8436;DHT22;4255;48.730;9.156;2022-12-05T03:13:44;4.20;99.90
8436;DHT22;4255;48.730;9.156;2022-12-05T03:16:16;4.30;99.90
8436;DHT22;4255;48.730;9.156;2022-12-05T03:18:48;4.30;99.90
8436;DHT22;4255;48.730;9.156;2022-12-05T03:21:36;4.40;99.90
8436;DHT22;4255;48.730;9.156;2022-12-05T03:24:09;4.40;99.90
8436;DHT22;4255;48.730;9.156;2022-12-05T03:29:35;4.50;99.90
8436;DHT22;4255;48.730;9.156;2022-12-05T03:37:14;4.50;99.90
8436;DHT22;4255;48.730;9.156;2022-12-05T03:39:46;4.60;99.90
8436;DHT22;4255;48.730;9.156;2022-12-05T03:42:16;4.50;99.90
8436;DHT22;4255;48.730;9.156;2022-12-05T03:45:02;4.60;99.90
8436;DHT22;4255;48.730;9.156;2022-12-05T03:47:35;4.80;99.90
8436;DHT22;4255;48.730;9.156;2022-12-05T03:50:14;5.00;99.90
8436;DHT22;4255;48.730;9.156;2022-12-05T03:52:53;4.90;99.90
8436;DHT22;4255;48.730;9.156;2022-12-05T03:55:22;5.00;99.90
8436;DHT22;4255;48.730;9.156;2022-12-05T03:57:58;5.00;99.90
8436;DHT22;4255;48.730;9.156;2022-12-05T04:00:27;5.10;99.90
8436;DHT22;4255;48.730;9.156;2022-12-05T04:03:19;5.00;99.90
8436;DHT22;4255;48.730;9.156;2022-12-05T04:05:53;5.00;99.90
8436;DHT22;4255;48.730;9.156;2022-12-05T04:08:30;5.00;99.90
8436;DHT22;4255;48.730;9.156;2022-12-05T04:11:01;4.90;99.90
8436;DHT22;4255;48.730;9.156;2022-12-05T04:13:41;5.00;99.90
8436;DHT22;4255;48.730;9.156;2022-12-05T04:16:14;5.20;99.90
8436;DHT22;4255;48.730;9.156;2022-12-05T04:19:07;5.30;99.90
8436;DHT22;4255;48.730;9.156;2022-12-05T04:21:39;5.30;99.90
8436;DHT22;4255;48.730;9.156;2022-12-05T04:24:14;5.00;99.90
8436;DHT22;4255;48.730;9.156;2022-12-05T04:30:07;5.10;99.90
8436;DHT22;4255;48.730;9.156;2022-12-05T04:32:44;4.90;99.90
8436;DHT22;4255;48.730;9.156;2022-12-05T04:35:22;4.90;99.90
8436;DHT22;4255;48.730;9.156;2022-12-05T04:37:50;4.90;99.90
8436;DHT22;4255;48.730;9.156;2022-12-05T04:40:22;5.10;99.90
8436;DHT22;4255;48.730;9.156;2022-12-05T04:42:52;5.10;99.90
8436;DHT22;4255;48.730;9.156;2022-12-05T04:45:21;5.20;99.90
8436;DHT22;4255;48.730;9.156;2022-12-05T04:47:52;5.30;99.90
8436;DHT22;4255;48.730;9.156;2022-12-05T04:50:20;5.40;99.90
8436;DHT22;4255;48.730;9.156;2022-12-05T04:52:49;5.30;99.90
8436;DHT22;4255;48.730;9.156;2022-12-05T04:55:21;5.40;99.90
8436;DHT22;4255;48.730;9.156;2022-12-05T05:00:18;5.40;99.90
8436;DHT22;4255;48.730;9.156;2022-12-05T05:02:49;5.40;99.90
8436;DHT22;4255;48.730;9.156;2022-12-05T05:05:17;5.50;99.90
8436;DHT22;4255;48.730;9.156;2022-12-05T05:07:51;5.50;99.90
8436;DHT22;4255;48.730;9.156;2022-12-05T05:10:30;5.60;99.90
8436;DHT22;4255;48.730;9.156;2022-12-05T05:12:57;5.40;99.90
8436;DHT22;4255;48.730;9.156;2022-12-05T05:15:22;5.30;99.90
8436;DHT22;4255;48.730;9.156;2022-12-05T05:17:48;5.40;99.90
8436;DHT22;4255;48.730;9.156;2022-12-05T05:20:13;5.30;99.90
8436;DHT22;4255;48.730;9.156;2022-12-05T05:22:53;5.30;99.90
8436;DHT22;4255;48.730;9.156;2022-12-05T05:25:19;5.20;99.90
8436;DHT22;4255;48.730;9.156;2022-12-05T05:27:53;5.20;99.90
8436;DHT22;4255;48.730;9.156;2022-12-05T05:30:20;5.20;99.90
8436;DHT22;4255;48.730;9.156;2022-12-05T05:32:46;5.30;99.90
8436;DHT22;4255;48.730;9.156;2022-12-05T05:35:13;5.10;99.90
8436;DHT22;4255;48.730;9.156;2022-12-05T05:37:39;5.00;99.90
8436;DHT22;4255;48.730;9.156;2022-12-05T05:40:08;4.70;99.90
8436;DHT22;4255;48.730;9.156;2022-12-05T05:42:34;4.70;99.90
8436;DHT22;4255;48.730;9.156;2022-12-05T05:44:59;4.70;99.90
8436;DHT22;4255;48.730;9.156;2022-12-05T05:47:25;4.80;99.90
8436;DHT22;4255;48.730;9.156;2022-12-05T05:49:50;4.70;99.90
8436;DHT22;4255;48.730;9.156;2022-12-05T05:52:16;4.80;99.90
8436;DHT22;4255;48.730;9.156;2022-12-05T05:54:41;4.90;99.90
8436;DHT22;4255;48.730;9.156;2022-12-05T05:57:07;5.00;99.90
8436;DHT22;4255;48.730;9.156;2022-12-05T05:59:33;5.10;99.90
8436;DHT22;4255;48.730;9.156;2022-12-05T06:01:58;5.10;99.90
8436;DHT22;4255;48.730;9.156;2022-12-05T06:04:24;5.20;99.90
8436;DHT22;4255;48.730;9.156;2022-12-05T06:06:50;5.30;99.90
8436;DHT22;4255;48.730;9.156;2022-12-05T06:09:15;5.10;99.90
8436;DHT22;4255;48.730;9.156;2022-12-05T06:11:41;5.10;99.90
8436;DHT22;4255;48.730;9.156;2022-12-05T06:14:07;5.10;99.90
8436;DHT22;4255;48.730;9.156;2022-12-05T06:16:32;5.00;99.90
8436;DHT22;4255;48.730;9.156;2022-12-05T06:18:58;4.90;99.90
8436;DHT22;4255;48.730;9.156;2022-12-05T06:21:24;4.80;99.90
8436;DHT22;4255;48.730;9.156;2022-12-05T06:23:50;4.80;99.90
8436;DHT22;4255;48.730;9.156;2022-12-05T06:26:18;4.80;99.90
8436;DHT22;4255;48.730;9.156;2022-12-05T06:28:46;4.80;99.90
8436;DHT22;4255;48.730;9.156;2022-12-05T06:31:17;4.80;99.90
8436;DHT22;4255;48.730;9.156;2022-12-05T06:33:43;4.80;99.90
8436;DHT22;4255;48.730;9.156;2022-12-05T06:36:12;4.80;99.90
8436;DHT22;4255;48.730;9.156;2022-12-05T06:38:38;4.80;99.90
8436;DHT22;4255;48.730;9.156;2022-12-05T06:41:09;4.60;99.90
8436;DHT22;4255;48.730;9.156;2022-12-05T06:43:35;4.60;99.90
8436;DHT22;4255;48.730;9.156;2022-12-05T06:46:08;4.70;99.90
8436;DHT22;4255;48.730;9.156;2022-12-05T06:48:34;4.80;99.90
8436;DHT22;4255;48.730;9.156;2022-12-05T06:51:00;4.90;99.90
8436;DHT22;4255;48.730;9.156;2022-12-05T06:53:26;5.00;99.90
8436;DHT22;4255;48.730;9.156;2022-12-05T06:56:00;5.10;99.90
8436;DHT22;4255;48.730;9.156;2022-12-05T06:58:27;5.30;99.90
8436;DHT22;4255;48.730;9.156;2022-12-05T07:00:53;5.30;99.90
8436;DHT22;4255;48.730;9.156;2022-12-05T07:03:38;5.40;99.90
8436;DHT22;4255;48.730;9.156;2022-12-05T07:06:05;5.50;99.90
8436;DHT22;4255;48.730;9.156;2022-12-05T07:08:31;5.70;99.90
8436;DHT22;4255;48.730;9.156;2022-12-05T07:10:57;5.70;99.90
8436;DHT22;4255;48.730;9.156;2022-12-05T07:13:22;5.80;99.90
8436;DHT22;4255;48.730;9.156;2022-12-05T07:15:50;5.80;99.90
8436;DHT22;4255;48.730;9.156;2022-12-05T07:18:16;5.70;99.90
8436;DHT22;4255;48.730;9.156;2022-12-05T07:20:43;5.70;99.90
8436;DHT22;4255;48.730;9.156;2022-12-05T07:23:09;5.80;99.90
8436;DHT22;4255;48.730;9.156;2022-12-05T07:25:39;5.70;99.90
8436;DHT22;4255;48.730;9.156;2022-12-05T07:28:04;5.60;99.90
8436;DHT22;4255;48.730;9.156;2022-12-05T07:30:30;5.60;99.90
8436;DHT22;4255;48.730;9.156;2022-12-05T07:32:56;5.70;99.90
8436;DHT22;4255;48.730;9.156;2022-12-05T07:35:21;5.60;99.90
8436;DHT22;4255;48.730;9.156;2022-12-05T07:37:47;5.50;99.90
8436;DHT22;4255;48.730;9.156;2022-12-05T07:40:13;5.60;99.90
8436;DHT22;4255;48.730;9.156;2022-12-05T07:42:38;5.70;99.90
8436;DHT22;4255;48.730;9.156;2022-12-05T07:45:04;5.80;99.90
8436;DHT22;4255;48.730;9.156;2022-12-05T07:47:30;5.90;99.90
8436;DHT22;4255;48.730;9.156;2022-12-05T07:49:56;6.00;99.90
8436;DHT22;4255;48.730;9.156;2022-12-05T07:52:21;6.10;99.90
8436;DHT22;4255;48.730;9.156;2022-12-05T07:54:47;6.20;99.90
8436;DHT22;4255;48.730;9.156;2022-12-05T07:57:13;6.30;99.90
8436;DHT22;4255;48.730;9.156;2022-12-05T07:59:38;6.30;99.90
8436;DHT22;4255;48.730;9.156;2022-12-05T08:02:04;6.30;99.90
8436;DHT22;4255;48.730;9.156;2022-12-05T08:04:29;6.20;99.90
8436;DHT22;4255;48.730;9.156;2022-12-05T08:06:55;6.20;99.90
8436;DHT22;4255;48.730;9.156;2022-12-05T08:09:21;6.30;99.90
8436;DHT22;4255;48.730;9.156;2022-12-05T08:11:46;6.40;99.90
8436;DHT22;4255;48.730;9.156;2022-12-05T08:14:12;6.30;99.90
8436;DHT22;4255;48.730;9.156;2022-12-05T08:16:37;6.30;99.90
8436;DHT22;4255;48.730;9.156;2022-12-05T08:19:06;6.20;99.90
8436;DHT22;4255;48.730;9.156;2022-12-05T08:21:32;6.10;99.90
8436;DHT22;4255;48.730;9.156;2022-12-05T08:23:59;6.00;99.90
8436;DHT22;4255;48.730;9.156;2022-12-05T08:26:27;5.90;99.90
8436;DHT22;4255;48.730;9.156;2022-12-05T08:29:04;6.00;99.90
8436;DHT22;4255;48.730;9.156;2022-12-05T08:31:32;6.00;99.90
8436;DHT22;4255;48.730;9.156;2022-12-05T08:33:58;6.10;99.90
8436;DHT22;4255;48.730;9.156;2022-12-05T08:36:28;6.20;99.90
8436;DHT22;4255;48.730;9.156;2022-12-05T08:38:58;6.40;99.90
8436;DHT22;4255;48.730;9.156;2022-12-05T08:41:24;6.30;99.90
8436;DHT22;4255;48.730;9.156;2022-12-05T08:44:03;6.40;99.90
8436;DHT22;4255;48.730;9.156;2022-12-05T08:46:31;6.40;99.90
8436;DHT22;4255;48.730;9.156;2022-12-05T08:48:56;6.30;99.90
8436;DHT22;4255;48.730;9.156;2022-12-05T08:51:22;6.30;99.90
8436;DHT22;4255;48.730;9.156;2022-12-05T08:53:48;6.40;99.90
8436;DHT22;4255;48.730;9.156;2022-12-05T08:56:13;6.50;99.90
8436;DHT22;4255;48.730;9.156;2022-12-05T08:58:40;6.60;99.90
8436;DHT22;4255;48.730;9.156;2022-12-05T09:03:36;6.80;99.90
8436;DHT22;4255;48.730;9.156;2022-12-05T09:06:27;6.80;99.90
8436;DHT22;4255;48.730;9.156;2022-12-05T09:08:59;6.80;99.90
8436;DHT22;4255;48.730;9.156;2022-12-05T09:11:30;6.80;99.90
8436;DHT22;4255;48.730;9.156;2022-12-05T09:13:58;6.90;99.90
8436;DHT22;4255;48.730;9.156;2022-12-05T09:16:29;7.00;99.90
8436;DHT22;4255;48.730;9.156;2022-12-05T09:18:56;7.20;99.90
8436;DHT22;4255;48.730;9.156;2022-12-05T09:21:24;7.20;99.90
8436;DHT22;4255;48.730;9.156;2022-12-05T09:23:50;7.30;99.90
8436;DHT22;4255;48.730;9.156;2022-12-05T09:26:18;7.40;99.90
8436;DHT22;4255;48.730;9.156;2022-12-05T09:28:45;7.50;99.90
8436;DHT22;4255;48.730;9.156;2022-12-05T09:31:13;7.60;99.90
8436;DHT22;4255;48.730;9.156;2022-12-05T09:33:40;7.50;99.90
8436;DHT22;4255;48.730;9.156;2022-12-05T09:36:11;7.50;99.90
8436;DHT22;4255;48.730;9.156;2022-12-05T09:38:37;7.40;99.90
8436;DHT22;4255;48.730;9.156;2022-12-05T09:41:22;7.30;99.90
8436;DHT22;4255;48.730;9.156;2022-12-05T09:44:21;7.30;99.90
8436;DHT22;4255;48.730;9.156;2022-12-05T09:47:02;7.20;99.90
8436;DHT22;4255;48.730;9.156;2022-12-05T09:49:30;7.20;99.90
8436;DHT22;4255;48.730;9.156;2022-12-05T09:51:58;7.30;99.90
8436;DHT22;4255;48.730;9.156;2022-12-05T09:54:25;7.10;99.90
8436;DHT22;4255;48.730;9.156;2022-12-05T09:56:51;7.30;99.90
8436;DHT22;4255;48.730;9.156;2022-12-05T09:59:18;7.30;99.90
8436;DHT22;4255;48.730;9.156;2022-12-05T10:02:09;7.30;99.90
8436;DHT22;4255;48.730;9.156;2022-12-05T10:04:47;7.30;99.90
8436;DHT22;4255;48.730;9.156;2022-12-05T10:12:54;7.50;99.90
8436;DHT22;4255;48.730;9.156;2022-12-05T10:15:41;7.50;99.90
8436;DHT22;4255;48.730;9.156;2022-12-05T10:18:10;7.50;99.90
8436;DHT22;4255;48.730;9.156;2022-12-05T10:20:49;7.40;99.90
8436;DHT22;4255;48.730;9.156;2022-12-05T10:23:20;7.40;99.90
8436;DHT22;4255;48.730;9.156;2022-12-05T10:25:50;7.50;99.90
8436;DHT22;4255;48.730;9.156;2022-12-05T10:28:34;7.60;99.90
8436;DHT22;4255;48.730;9.156;2022-12-05T10:31:06;7.80;99.90
8436;DHT22;4255;48.730;9.156;2022-12-05T10:33:37;7.70;99.90
8436;DHT22;4255;48.730;9.156;2022-12-05T10:36:10;7.60;99.90
8436;DHT22;4255;48.730;9.156;2022-12-05T10:38:36;7.50;99.90
8436;DHT22;4255;48.730;9.156;2022-12-05T10:41:07;7.40;99.90
8436;DHT22;4255;48.730;9.156;2022-12-05T10:43:34;7.60;99.90
8436;DHT22;4255;48.730;9.156;2022-12-05T10:46:01;7.60;99.90
8436;DHT22;4255;48.730;9.156;2022-12-05T10:48:28;7.60;99.90
8436;DHT22;4255;48.730;9.156;2022-12-05T10:50:57;7.70;99.90
8436;DHT22;4255;48.730;9.156;2022-12-05T10:53:28;7.90;99.90
8436;DHT22;4255;48.730;9.156;2022-12-05T10:55:54;8.00;99.90
8436;DHT22;4255;48.730;9.156;2022-12-05T10:58:24;7.90;99.90
8436;DHT22;4255;48.730;9.156;2022-12-05T11:00:56;7.90;99.90
8436;DHT22;4255;48.730;9.156;2022-12-05T11:03:30;8.30;99.90
8436;DHT22;4255;48.730;9.156;2022-12-05T11:06:00;8.50;99.90
8436;DHT22;4255;48.730;9.156;2022-12-05T11:08:30;8.70;99.90
8436;DHT22;4255;48.730;9.156;2022-12-05T11:13:54;8.90;99.90
8436;DHT22;4255;48.730;9.156;2022-12-05T11:16:25;9.10;99.90
8436;DHT22;4255;48.730;9.156;2022-12-05T11:18:52;9.00;99.90
8436;DHT22;4255;48.730;9.156;2022-12-05T11:21:19;9.10;99.90
8436;DHT22;4255;48.730;9.156;2022-12-05T11:23:46;9.20;99.90
8436;DHT22;4255;48.730;9.156;2022-12-05T11:26:35;9.20;99.90
8436;DHT22;4255;48.730;9.156;2022-12-05T11:29:03;9.00;99.90
8436;DHT22;4255;48.730;9.156;2022-12-05T11:31:29;8.80;99.90
8436;DHT22;4255;48.730;9.156;2022-12-05T11:34:15;8.60;99.90
8436;DHT22;4255;48.730;9.156;2022-12-05T11:36:47;8.30;99.90
8436;DHT22;4255;48.730;9.156;2022-12-05T11:39:15;8.20;99.90
8436;DHT22;4255;48.730;9.156;2022-12-05T11:41:43;8.50;99.90
8436;DHT22;4255;48.730;9.156;2022-12-05T11:47:05;8.50;99.90
8436;DHT22;4255;48.730;9.156;2022-12-05T11:53:12;9.20;99.90
8436;DHT22;4255;48.730;9.156;2022-12-05T11:55:53;9.20;99.90
8436;DHT22;4255;48.730;9.156;2022-12-05T12:06:43;8.40;99.90
8436;DHT22;4255;48.730;9.156;2022-12-05T12:09:42;8.40;99.90
8436;DHT22;4255;48.730;9.156;2022-12-05T12:14:50;8.40;99.90
8436;DHT22;4255;48.730;9.156;2022-12-05T12:17:20;8.40;99.90
8436;DHT22;4255;48.730;9.156;2022-12-05T12:23:05;8.70;99.90
8436;DHT22;4255;48.730;9.156;2022-12-05T12:28:45;8.30;99.90
8436;DHT22;4255;48.730;9.156;2022-12-05T12:31:34;8.00;99.90
8436;DHT22;4255;48.730;9.156;2022-12-05T12:37:12;7.90;99.90
8436;DHT22;4255;48.730;9.156;2022-12-05T12:42:34;8.20;99.90
8436;DHT22;4255;48.730;9.156;2022-12-05T12:47:55;8.20;99.90
8436;DHT22;4255;48.730;9.156;2022-12-05T12:50:31;8.30;99.90
8436;DHT22;4255;48.730;9.156;2022-12-05T13:01:21;8.60;99.90
8436;DHT22;4255;48.730;9.156;2022-12-05T13:04:06;8.50;99.90
8436;DHT22;4255;48.730;9.156;2022-12-05T13:11:39;8.20;99.90
8436;DHT22;4255;48.730;9.156;2022-12-05T13:14:11;8.30;99.90
8436;DHT22;4255;48.730;9.156;2022-12-05T13:16:40;8.50;99.90
8436;DHT22;4255;48.730;9.156;2022-12-05T13:19:16;8.40;99.90
8436;DHT22;4255;48.730;9.156;2022-12-05T13:21:46;8.50;99.90
8436;DHT22;4255;48.730;9.156;2022-12-05T13:24:12;8.50;99.90
8436;DHT22;4255;48.730;9.156;2022-12-05T13:26:44;8.40;99.90
8436;DHT22;4255;48.730;9.156;2022-12-05T13:29:20;8.40;99.90
8436;DHT22;4255;48.730;9.156;2022-12-05T13:31:47;8.70;99.90
8436;DHT22;4255;48.730;9.156;2022-12-05T13:37:09;8.60;99.90
8436;DHT22;4255;48.730;9.156;2022-12-05T13:39:55;8.30;99.90
8436;DHT22;4255;48.730;9.156;2022-12-05T13:42:41;8.30;99.90
8436;DHT22;4255;48.730;9.156;2022-12-05T13:45:09;8.10;99.90
8436;DHT22;4255;48.730;9.156;2022-12-05T13:50:29;8.10;99.90
8436;DHT22;4255;48.730;9.156;2022-12-05T13:53:05;8.10;99.90
8436;DHT22;4255;48.730;9.156;2022-12-05T13:55:54;8.20;99.90
8436;DHT22;4255;48.730;9.156;2022-12-05T14:00:50;8.40;99.90
8436;DHT22;4255;48.730;9.156;2022-12-05T14:03:17;8.60;99.90
8436;DHT22;4255;48.730;9.156;2022-12-05T14:06:01;8.50;99.90
8436;DHT22;4255;48.730;9.156;2022-12-05T14:15:49;8.40;99.90
8436;DHT22;4255;48.730;9.156;2022-12-05T14:21:24;8.40;99.90
8436;DHT22;4255;48.730;9.156;2022-12-05T14:32:30;8.50;99.90
8436;DHT22;4255;48.730;9.156;2022-12-05T14:35:10;8.80;99.90
8436;DHT22;4255;48.730;9.156;2022-12-05T14:37:39;8.60;99.90
8436;DHT22;4255;48.730;9.156;2022-12-05T14:40:30;8.10;99.90
8436;DHT22;4255;48.730;9.156;2022-12-05T14:50:52;7.70;99.90
8436;DHT22;4255;48.730;9.156;2022-12-05T14:56:20;7.40;99.90
8436;DHT22;4255;48.730;9.156;2022-12-05T15:01:40;7.60;99.90
8436;DHT22;4255;48.730;9.156;2022-12-05T15:04:18;7.40;99.90
8436;DHT22;4255;48.730;9.156;2022-12-05T15:06:58;7.50;99.90
8436;DHT22;4255;48.730;9.156;2022-12-05T15:12:21;7.20;99.90
8436;DHT22;4255;48.730;9.156;2022-12-05T15:15:14;7.10;99.90
8436;DHT22;4255;48.730;9.156;2022-12-05T15:17:52;7.10;99.90
8436;DHT22;4255;48.730;9.156;2022-12-05T15:23:44;7.30;99.90
8436;DHT22;4255;48.730;9.156;2022-12-05T15:26:39;7.20;99.90
8436;DHT22;4255;48.730;9.156;2022-12-05T15:31:49;6.80;99.90
8436;DHT22;4255;48.730;9.156;2022-12-05T15:36:56;6.90;99.90
8436;DHT22;4255;48.730;9.156;2022-12-05T15:39:24;6.70;99.90
8436;DHT22;4255;48.730;9.156;2022-12-05T15:41:51;6.60;99.90
8436;DHT22;4255;48.730;9.156;2022-12-05T15:44:19;6.50;99.90
8436;DHT22;4255;48.730;9.156;2022-12-05T15:46:50;6.60;99.90
8436;DHT22;4255;48.730;9.156;2022-12-05T15:49:21;6.90;99.90
8436;DHT22;4255;48.730;9.156;2022-12-05T15:51:50;6.90;99.90
8436;DHT22;4255;48.730;9.156;2022-12-05T15:54:21;7.10;99.90
8436;DHT22;4255;48.730;9.156;2022-12-05T15:57:05;7.10;99.90
8436;DHT22;4255;48.730;9.156;2022-12-05T15:59:37;7.20;99.90
8436;DHT22;4255;48.730;9.156;2022-12-05T16:02:16;7.30;99.90
8436;DHT22;4255;48.730;9.156;2022-12-05T16:04:51;7.30;99.90
8436;DHT22;4255;48.730;9.156;2022-12-05T16:07:18;7.30;99.90
8436;DHT22;4255;48.730;9.156;2022-12-05T16:09:46;7.40;99.90
8436;DHT22;4255;48.730;9.156;2022-12-05T16:12:20;7.60;99.90
8436;DHT22;4255;48.730;9.156;2022-12-05T16:14:54;7.50;99.90
8436;DHT22;4255;48.730;9.156;2022-12-05T16:17:21;7.40;99.90
8436;DHT22;4255;48.730;9.156;2022-12-05T16:19:47;7.30;99.90
8436;DHT22;4255;48.730;9.156;2022-12-05T16:24:45;7.40;99.90
8436;DHT22;4255;48.730;9.156;2022-12-05T16:27:15;7.30;99.90
8436;DHT22;4255;48.730;9.156;2022-12-05T16:29:41;7.20;99.90
8436;DHT22;4255;48.730;9.156;2022-12-05T16:32:22;7.10;99.90
8436;DHT22;4255;48.730;9.156;2022-12-05T16:34:48;7.20;99.90
8436;DHT22;4255;48.730;9.156;2022-12-05T16:37:32;7.10;99.90
8436;DHT22;4255;48.730;9.156;2022-12-05T16:39:58;7.10;99.90
8436;DHT22;4255;48.730;9.156;2022-12-05T16:42:27;7.20;99.90
8436;DHT22;4255;48.730;9.156;2022-12-05T16:45:00;7.30;99.90
8436;DHT22;4255;48.730;9.156;2022-12-05T16:47:54;7.30;99.90
8436;DHT22;4255;48.730;9.156;2022-12-05T16:50:33;7.20;99.90
8436;DHT22;4255;48.730;9.156;2022-12-05T16:53:09;7.10;99.90
8436;DHT22;4255;48.730;9.156;2022-12-05T16:55:37;7.10;99.90
8436;DHT22;4255;48.730;9.156;2022-12-05T16:58:04;7.20;99.90
8436;DHT22;4255;48.730;9.156;2022-12-05T17:00:30;7.10;99.90
8436;DHT22;4255;48.730;9.156;2022-12-05T17:02:57;7.00;99.90
8436;DHT22;4255;48.730;9.156;2022-12-05T17:05:24;6.90;99.90
8436;DHT22;4255;48.730;9.156;2022-12-05T17:07:50;6.90;99.90
8436;DHT22;4255;48.730;9.156;2022-12-05T17:10:16;7.00;99.90
8436;DHT22;4255;48.730;9.156;2022-12-05T17:12:43;7.10;99.90
8436;DHT22;4255;48.730;9.156;2022-12-05T17:15:18;7.20;99.90
8436;DHT22;4255;48.730;9.156;2022-12-05T17:17:44;7.30;99.90
8436;DHT22;4255;48.730;9.156;2022-12-05T17:20:10;7.20;99.90
8436;DHT22;4255;48.730;9.156;2022-12-05T17:22:39;7.00;99.90
8436;DHT22;4255;48.730;9.156;2022-12-05T17:25:32;6.90;99.90
8436;DHT22;4255;48.730;9.156;2022-12-05T17:28:00;7.00;99.90
8436;DHT22;4255;48.730;9.156;2022-12-05T17:30:26;7.00;99.90
8436;DHT22;4255;48.730;9.156;2022-12-05T17:32:52;7.10;99.90
8436;DHT22;4255;48.730;9.156;2022-12-05T17:35:19;7.20;99.90
8436;DHT22;4255;48.730;9.156;2022-12-05T17:37:46;7.30;99.90
8436;DHT22;4255;48.730;9.156;2022-12-05T17:40:12;7.30;99.90
8436;DHT22;4255;48.730;9.156;2022-12-05T17:42:39;7.40;99.90
8436;DHT22;4255;48.730;9.156;2022-12-05T17:45:13;7.50;99.90
8436;DHT22;4255;48.730;9.156;2022-12-05T17:47:39;7.40;99.90
8436;DHT22;4255;48.730;9.156;2022-12-05T17:50:11;7.50;99.90
8436;DHT22;4255;48.730;9.156;2022-12-05T17:52:37;7.40;99.90
8436;DHT22;4255;48.730;9.156;2022-12-05T17:55:02;7.30;99.90
8436;DHT22;4255;48.730;9.156;2022-12-05T17:57:28;7.30;99.90
8436;DHT22;4255;48.730;9.156;2022-12-05T17:59:54;7.20;99.90
8436;DHT22;4255;48.730;9.156;2022-12-05T18:02:20;7.30;99.90
8436;DHT22;4255;48.730;9.156;2022-12-05T18:04:45;7.30;99.90
8436;DHT22;4255;48.730;9.156;2022-12-05T18:07:11;7.40;99.90
8436;DHT22;4255;48.730;9.156;2022-12-05T18:09:37;7.30;99.90
8436;DHT22;4255;48.730;9.156;2022-12-05T18:12:02;7.20;99.90
8436;DHT22;4255;48.730;9.156;2022-12-05T18:14:28;7.30;99.90
8436;DHT22;4255;48.730;9.156;2022-12-05T18:16:55;7.00;99.90
8436;DHT22;4255;48.730;9.156;2022-12-05T18:19:21;7.00;99.90
8436;DHT22;4255;48.730;9.156;2022-12-05T18:21:46;7.00;99.90
8436;DHT22;4255;48.730;9.156;2022-12-05T18:24:12;6.90;99.90
8436;DHT22;4255;48.730;9.156;2022-12-05T18:26:37;6.90;99.90
8436;DHT22;4255;48.730;9.156;2022-12-05T18:29:03;7.00;99.90
8436;DHT22;4255;48.730;9.156;2022-12-05T18:31:28;7.10;99.90
8436;DHT22;4255;48.730;9.156;2022-12-05T18:33:55;7.10;99.90
8436;DHT22;4255;48.730;9.156;2022-12-05T18:36:21;7.10;99.90
8436;DHT22;4255;48.730;9.156;2022-12-05T18:38:55;7.10;99.90
8436;DHT22;4255;48.730;9.156;2022-12-05T18:41:22;7.20;99.90
8436;DHT22;4255;48.730;9.156;2022-12-05T18:43:50;7.20;99.90
8436;DHT22;4255;48.730;9.156;2022-12-05T18:46:15;7.20;99.90
8436;DHT22;4255;48.730;9.156;2022-12-05T18:48:41;7.30;99.90
8436;DHT22;4255;48.730;9.156;2022-12-05T18:51:08;7.30;99.90
8436;DHT22;4255;48.730;9.156;2022-12-05T18:53:34;7.30;99.90